createdAt,value
2022-12-08T00:00:07.885Z,20.30
2022-12-08T00:02:34.820Z,21.55
2022-12-08T00:05:20.373Z,20.35
2022-12-08T00:08:06.140Z,21.65
2022-12-08T00:10:48.984Z,21.35
2022-12-08T00:13:16.673Z,24.05
2022-12-08T00:15:43.706Z,24.50
2022-12-08T00:18:10.573Z,20.80
2022-12-08T00:20:37.433Z,16.77
2022-12-08T00:23:04.589Z,14.45
2022-12-08T00:25:32.350Z,19.25
2022-12-08T00:27:59.163Z,20.08
2022-12-08T00:30:26.083Z,18.60
2022-12-08T00:32:53.010Z,18.02
2022-12-08T00:35:19.838Z,17.15
2022-12-08T00:37:46.953Z,16.17
2022-12-08T00:40:13.992Z,16.35
2022-12-08T00:42:40.802Z,16.95
2022-12-08T00:45:08.088Z,18.02
2022-12-08T00:47:35.031Z,16.77
2022-12-08T00:50:02.425Z,16.50
2022-12-08T00:52:29.645Z,14.50
2022-12-08T00:54:56.651Z,13.13
2022-12-08T00:57:23.589Z,13.00
2022-12-08T00:59:50.402Z,13.40
2022-12-08T01:02:17.221Z,12.60
2022-12-08T01:04:44.107Z,11.68
2022-12-08T01:07:11.028Z,12.45
2022-12-08T01:09:38.046Z,11.98
2022-12-08T01:12:05.782Z,12.15
2022-12-08T01:14:33.800Z,12.57
2022-12-08T01:17:01.065Z,13.75
2022-12-08T01:19:27.956Z,13.77
2022-12-08T01:21:55.151Z,14.23
2022-12-08T01:24:22.146Z,16.00
2022-12-08T01:26:50.480Z,16.17
2022-12-08T01:29:18.100Z,15.18
2022-12-08T01:31:45.281Z,14.77
2022-12-08T01:34:12.553Z,15.40
2022-12-08T01:36:39.663Z,15.65
2022-12-08T01:39:10.694Z,20.88
2022-12-08T01:41:38.795Z,28.50
2022-12-08T01:44:08.947Z,31.83
2022-12-08T01:46:38.974Z,25.13
2022-12-08T01:49:12.715Z,20.65
2022-12-08T01:51:44.154Z,19.30
2022-12-08T01:54:13.093Z,16.08
2022-12-08T01:57:04.657Z,16.60
2022-12-08T01:59:34.574Z,15.73
2022-12-08T02:02:01.720Z,14.38
2022-12-08T02:04:28.662Z,14.32
2022-12-08T02:06:55.943Z,13.80
2022-12-08T02:09:22.920Z,14.52
2022-12-08T02:11:51.416Z,13.40
2022-12-08T02:14:18.397Z,14.27
2022-12-08T02:16:54.320Z,14.00
2022-12-08T02:19:36.169Z,13.23
2022-12-08T02:22:11.820Z,13.88
2022-12-08T02:24:57.001Z,14.23
2022-12-08T02:27:37.504Z,13.95
2022-12-08T02:30:22.586Z,15.05
2022-12-08T02:33:09.854Z,15.25
2022-12-08T02:35:58.899Z,15.70
2022-12-08T02:38:55.777Z,14.50
2022-12-08T02:41:37.757Z,13.38
2022-12-08T02:44:27.053Z,13.10
2022-12-08T02:47:10.169Z,12.82
2022-12-08T02:49:37.217Z,13.52
2022-12-08T02:52:07.816Z,12.93
2022-12-08T02:54:36.585Z,15.60
2022-12-08T02:57:22.894Z,18.67
2022-12-08T03:00:06.686Z,17.80
2022-12-08T03:03:06.075Z,23.00
2022-12-08T03:05:58.183Z,21.38
2022-12-08T03:08:34.995Z,19.08
2022-12-08T03:11:09.829Z,17.63
2022-12-08T03:13:42.520Z,19.10
2022-12-08T03:16:14.302Z,22.13
2022-12-08T03:18:47.885Z,20.98
2022-12-08T03:21:16.683Z,20.25
2022-12-08T03:23:46.528Z,18.40
2022-12-08T03:26:23.221Z,18.65
2022-12-08T03:28:50.292Z,18.02
2022-12-08T03:31:20.037Z,17.88
2022-12-08T03:33:51.928Z,17.77
2022-12-08T03:36:19.785Z,16.75
2022-12-08T03:38:50.523Z,17.55
2022-12-08T03:41:20.140Z,15.23
2022-12-08T03:43:53.452Z,15.90
2022-12-08T03:48:48.454Z,17.00
2022-12-08T03:51:16.163Z,16.65
2022-12-08T03:53:43.532Z,16.35
2022-12-08T03:56:23.662Z,15.23
2022-12-08T03:58:50.739Z,16.27
2022-12-08T04:01:17.663Z,17.05
2022-12-08T04:03:44.564Z,18.65
2022-12-08T04:06:11.702Z,16.98
2022-12-08T04:08:38.918Z,17.30
2022-12-08T04:11:06.774Z,17.38
2022-12-08T04:13:38.567Z,19.65
2022-12-08T04:16:06.675Z,18.15
2022-12-08T04:18:34.370Z,19.20
2022-12-08T04:21:01.870Z,19.13
2022-12-08T04:23:28.656Z,19.25
2022-12-08T04:25:55.586Z,19.42
2022-12-08T04:28:22.551Z,17.58
2022-12-08T04:30:50.151Z,20.35
2022-12-08T04:33:17.666Z,18.05
2022-12-08T04:35:44.772Z,16.83
2022-12-08T04:38:11.678Z,16.80
2022-12-08T04:40:38.622Z,17.30
2022-12-08T04:43:05.671Z,17.65
2022-12-08T04:45:32.945Z,18.48
2022-12-08T04:48:01.114Z,17.67
2022-12-08T04:50:28.611Z,17.50
2022-12-08T04:52:55.515Z,18.00
2022-12-08T04:55:22.525Z,16.80
2022-12-08T04:57:49.415Z,17.55
2022-12-08T05:00:16.973Z,19.35
2022-12-08T05:02:43.857Z,19.70
2022-12-08T05:05:10.892Z,21.90
2022-12-08T05:07:37.983Z,21.75
2022-12-08T05:10:05.710Z,20.48
2022-12-08T05:12:33.404Z,20.83
2022-12-08T05:15:00.280Z,22.13
2022-12-08T05:17:27.060Z,21.85
2022-12-08T05:19:53.964Z,22.85
2022-12-08T05:22:20.786Z,23.88
2022-12-08T05:24:48.029Z,23.52
2022-12-08T05:27:15.385Z,23.83
2022-12-08T05:29:42.556Z,25.08
2022-12-08T05:32:09.657Z,28.17
2022-12-08T05:34:36.637Z,26.33
2022-12-08T05:37:03.519Z,29.50
2022-12-08T05:39:30.380Z,28.98
2022-12-08T05:41:57.293Z,27.98
2022-12-08T05:44:24.410Z,27.27
2022-12-08T05:46:51.561Z,28.73
2022-12-08T05:49:18.678Z,28.92
2022-12-08T05:51:45.519Z,29.40
2022-12-08T05:54:12.332Z,28.23
2022-12-08T05:56:39.265Z,28.38
2022-12-08T05:59:07.244Z,27.10
2022-12-08T06:01:34.125Z,26.20
2022-12-08T06:04:02.863Z,25.60
2022-12-08T06:06:31.073Z,26.48
2022-12-08T06:08:57.933Z,26.67
2022-12-08T06:11:28.133Z,23.33
2022-12-08T06:13:56.823Z,25.33
2022-12-08T06:16:25.210Z,29.20
2022-12-08T06:18:52.948Z,27.42
2022-12-08T06:21:20.269Z,30.40
2022-12-08T06:23:52.203Z,28.38
2022-12-08T06:26:19.767Z,27.33
2022-12-08T06:28:47.243Z,27.25
2022-12-08T06:31:17.769Z,28.42
2022-12-08T06:33:45.342Z,26.95
2022-12-08T06:36:14.602Z,29.00
2022-12-08T06:38:43.820Z,31.80
2022-12-08T06:41:12.229Z,29.25
2022-12-08T06:43:39.600Z,31.30
2022-12-08T06:46:08.602Z,32.92
2022-12-08T06:48:35.621Z,31.42
2022-12-08T06:51:15.138Z,29.23
2022-12-08T06:53:42.923Z,30.23
2022-12-08T06:56:11.477Z,32.13
2022-12-08T06:58:38.955Z,31.90
2022-12-08T07:01:11.799Z,30.50
2022-12-08T07:03:39.580Z,30.10
2022-12-08T07:06:06.961Z,31.85
2022-12-08T07:08:35.155Z,31.88
2022-12-08T07:11:14.195Z,29.35
2022-12-08T07:13:43.597Z,32.75
2022-12-08T07:16:12.359Z,33.47
2022-12-08T07:18:39.830Z,30.83
2022-12-08T07:21:11.974Z,32.03
2022-12-08T07:23:39.423Z,34.40
2022-12-08T07:26:08.522Z,39.35
2022-12-08T07:28:37.308Z,38.20
2022-12-08T07:31:05.785Z,39.42
2022-12-08T07:33:35.494Z,37.40
2022-12-08T07:36:05.155Z,38.40
2022-12-08T07:38:32.837Z,35.08
2022-12-08T07:41:02.164Z,37.60
2022-12-08T07:43:29.245Z,35.35
2022-12-08T07:45:56.130Z,36.75
2022-12-08T07:48:23.036Z,36.72
2022-12-08T07:50:50.525Z,37.13
2022-12-08T07:53:17.404Z,42.67
2022-12-08T07:55:44.952Z,39.65
2022-12-08T07:58:12.084Z,37.75
2022-12-08T08:00:39.045Z,34.10
2022-12-08T08:03:06.440Z,34.70
2022-12-08T08:05:33.579Z,35.40
2022-12-08T08:08:01.633Z,35.67
2022-12-08T08:10:28.628Z,33.72
2022-12-08T08:12:59.216Z,29.67
2022-12-08T08:15:26.288Z,31.83
2022-12-08T08:17:53.624Z,29.60
2022-12-08T08:20:21.326Z,28.95
2022-12-08T08:22:50.281Z,28.85
2022-12-08T08:25:19.003Z,26.75
2022-12-08T08:27:46.979Z,26.73
2022-12-08T08:30:20.019Z,25.58
2022-12-08T08:32:48.109Z,23.92
2022-12-08T08:35:15.100Z,27.02
2022-12-08T08:37:48.369Z,24.13
2022-12-08T08:40:16.273Z,25.98
2022-12-08T08:42:43.171Z,23.67
2022-12-08T08:45:10.462Z,27.88
2022-12-08T08:47:37.429Z,27.50
2022-12-08T08:50:04.920Z,29.85
2022-12-08T08:52:32.059Z,30.10
2022-12-08T08:54:58.979Z,29.17
2022-12-08T08:57:26.403Z,30.90
2022-12-08T08:59:54.049Z,36.10
2022-12-08T09:02:22.456Z,34.95
2022-12-08T09:04:49.611Z,34.70
2022-12-08T09:07:18.732Z,36.30
2022-12-08T09:09:45.690Z,33.85
2022-12-08T09:12:13.173Z,34.13
2022-12-08T09:14:40.533Z,32.75
2022-12-08T09:17:07.791Z,31.40
2022-12-08T09:19:35.219Z,31.05
2022-12-08T09:22:02.089Z,31.05
2022-12-08T09:24:29.189Z,28.60
2022-12-08T09:26:56.170Z,28.90
2022-12-08T09:29:23.229Z,26.88
2022-12-08T09:31:50.378Z,27.92
2022-12-08T09:34:17.559Z,28.00
2022-12-08T09:36:44.380Z,29.45
2022-12-08T09:39:11.221Z,29.88
2022-12-08T09:41:50.289Z,29.00
2022-12-08T09:44:44.652Z,28.17
2022-12-08T09:47:17.976Z,24.95
2022-12-08T09:50:02.376Z,24.45
2022-12-08T09:52:41.177Z,24.38
2022-12-08T09:55:25.361Z,23.17
2022-12-08T09:58:00.926Z,23.70
2022-12-08T10:00:27.801Z,23.42
2022-12-08T10:02:56.670Z,28.55
2022-12-08T10:05:25.922Z,26.38
2022-12-08T10:08:10.503Z,27.92
2022-12-08T10:10:48.519Z,25.73
2022-12-08T10:13:37.250Z,25.98
2022-12-08T10:16:24.247Z,25.95
2022-12-08T10:19:10.111Z,27.35
2022-12-08T10:21:37.451Z,26.05
2022-12-08T10:24:12.877Z,26.25
2022-12-08T10:26:40.381Z,25.58
2022-12-08T10:29:12.639Z,26.88
2022-12-08T10:31:39.679Z,26.13
2022-12-08T10:34:23.356Z,25.25
2022-12-08T10:36:52.137Z,26.23
2022-12-08T10:39:34.349Z,26.50
2022-12-08T10:42:17.625Z,26.65
2022-12-08T10:45:13.256Z,26.33
2022-12-08T10:47:45.098Z,28.05
2022-12-08T10:50:20.854Z,27.45
2022-12-08T10:53:00.975Z,26.98
2022-12-08T10:55:29.544Z,27.08
2022-12-08T10:57:56.631Z,33.38
2022-12-08T11:00:28.402Z,32.72
2022-12-08T11:03:05.427Z,29.73
2022-12-08T11:05:35.739Z,31.73
2022-12-08T11:08:05.084Z,30.92
2022-12-08T11:10:42.546Z,34.10
2022-12-08T11:13:22.981Z,33.15
2022-12-08T11:15:52.285Z,34.55
2022-12-08T11:18:30.823Z,35.22
2022-12-08T11:21:18.249Z,34.50
2022-12-08T11:23:50.143Z,30.55
2022-12-08T11:26:35.823Z,30.23
2022-12-08T11:29:02.785Z,30.33
2022-12-08T11:31:35.288Z,32.22
2022-12-08T11:34:03.552Z,33.75
2022-12-08T11:36:33.858Z,34.42
2022-12-08T11:39:04.703Z,34.42
2022-12-08T11:41:39.824Z,34.65
2022-12-08T11:44:21.861Z,33.42
2022-12-08T11:46:56.679Z,33.38
2022-12-08T11:49:34.814Z,33.47
2022-12-08T11:52:12.429Z,33.10
2022-12-08T11:55:18.323Z,34.33
2022-12-08T11:57:46.148Z,34.47
2022-12-08T12:00:16.720Z,35.60
2022-12-08T12:02:51.997Z,35.22
2022-12-08T12:06:05.360Z,35.22
2022-12-08T12:09:07.013Z,34.70
2022-12-08T12:11:58.293Z,34.58
2022-12-08T12:14:59.115Z,36.38
2022-12-08T12:17:44.217Z,37.28
2022-12-08T12:20:29.316Z,34.88
2022-12-08T12:23:03.831Z,34.42
2022-12-08T12:25:32.617Z,36.55
2022-12-08T12:28:05.437Z,38.10
2022-12-08T12:30:54.251Z,49.13
2022-12-08T12:33:22.868Z,46.97
2022-12-08T12:35:49.962Z,49.20
2022-12-08T12:38:57.854Z,50.00
2022-12-08T12:41:43.282Z,45.95
2022-12-08T12:44:10.312Z,44.05
2022-12-08T12:46:37.328Z,44.60
2022-12-08T12:49:41.079Z,44.03
2022-12-08T12:52:16.850Z,47.85
2022-12-08T12:54:50.065Z,48.45
2022-12-08T12:57:19.721Z,51.42
2022-12-08T12:59:55.474Z,50.47
2022-12-08T13:02:33.322Z,49.38
2022-12-08T13:05:21.282Z,45.47
2022-12-08T13:08:02.319Z,47.33
2022-12-08T13:10:38.851Z,45.22
2022-12-08T13:13:18.252Z,47.97
2022-12-08T13:15:54.112Z,48.55
2022-12-08T13:18:28.854Z,47.55
2022-12-08T13:21:01.277Z,48.78
2022-12-08T13:23:40.174Z,55.58
2022-12-08T13:26:23.833Z,59.85
2022-12-08T13:29:26.145Z,56.83
2022-12-08T13:31:58.301Z,55.95
2022-12-08T13:34:30.394Z,56.38
2022-12-08T13:37:23.272Z,54.20
2022-12-08T13:39:52.021Z,52.50
2022-12-08T13:42:27.916Z,49.25
2022-12-08T13:48:36.717Z,46.78
2022-12-08T13:53:22.357Z,48.03
2022-12-08T13:57:11.514Z,46.38
2022-12-08T13:59:45.471Z,45.00
2022-12-08T14:02:33.249Z,44.13
2022-12-08T14:05:18.547Z,43.03
2022-12-08T14:07:52.080Z,42.75
2022-12-08T14:10:32.465Z,38.45
2022-12-08T14:13:06.491Z,39.38
2022-12-08T14:15:38.140Z,44.75
2022-12-08T14:18:07.024Z,39.53
2022-12-08T14:21:12.078Z,38.88
2022-12-08T14:23:25.463Z,35.58
2022-12-08T14:25:52.739Z,36.88
2022-12-08T14:28:20.343Z,41.03
2022-12-08T14:30:49.956Z,35.92
2022-12-08T14:33:18.726Z,39.22
2022-12-08T14:35:54.499Z,38.60
2022-12-08T14:38:23.043Z,43.33
2022-12-08T14:41:01.874Z,40.65
2022-12-08T14:43:30.491Z,36.92
2022-12-08T14:46:21.537Z,38.97
2022-12-08T14:48:48.591Z,40.33
2022-12-08T14:51:26.694Z,38.10
2022-12-08T14:56:53.528Z,36.30
2022-12-08T14:59:23.139Z,39.45
2022-12-08T15:01:52.974Z,37.80
2022-12-08T15:04:25.768Z,38.35
2022-12-08T15:07:14.908Z,38.30
2022-12-08T15:09:44.690Z,38.72
2022-12-08T15:12:14.521Z,37.95
2022-12-08T15:14:56.752Z,37.42
2022-12-08T15:17:49.269Z,39.58
2022-12-08T15:20:28.784Z,38.40
2022-12-08T15:23:00.209Z,43.25
2022-12-08T15:25:27.029Z,40.85
2022-12-08T15:27:54.758Z,38.58
2022-12-08T15:30:21.652Z,35.35
2022-12-08T15:32:52.371Z,36.60
2022-12-08T15:35:19.373Z,34.30
2022-12-08T15:37:46.709Z,36.20
2022-12-08T15:40:21.904Z,35.25
2022-12-08T15:42:49.638Z,35.85
2022-12-08T15:45:17.423Z,36.08
2022-12-08T15:47:45.609Z,37.90
2022-12-08T15:50:18.402Z,35.42
2022-12-08T15:52:45.501Z,33.20
2022-12-08T15:55:18.480Z,34.72
2022-12-08T16:00:54.518Z,35.50
2022-12-08T16:09:19.473Z,34.85
2022-12-08T16:12:07.609Z,35.83
2022-12-08T16:17:22.556Z,36.22
2022-12-08T16:19:49.839Z,37.40
2022-12-08T16:25:23.194Z,33.00
2022-12-08T16:28:02.934Z,32.75
2022-12-08T16:30:32.053Z,30.13
2022-12-08T16:32:59.641Z,33.45
2022-12-08T16:35:26.524Z,28.52
2022-12-08T16:37:53.646Z,28.15
2022-12-08T16:40:20.611Z,27.77
2022-12-08T16:42:50.181Z,26.45
2022-12-08T16:45:23.508Z,29.70
2022-12-08T16:47:53.489Z,28.05
2022-12-08T16:50:23.615Z,28.00
2022-12-08T16:53:00.022Z,28.45
2022-12-08T16:55:27.510Z,38.25
2022-12-08T16:57:54.774Z,38.30
2022-12-08T17:00:24.918Z,44.17
2022-12-08T17:02:52.511Z,45.67
2022-12-08T17:05:23.328Z,45.28
2022-12-08T17:07:51.924Z,46.22
2022-12-08T17:10:23.112Z,47.75
2022-12-08T17:12:52.080Z,44.35
2022-12-08T17:15:21.804Z,47.88
2022-12-08T17:17:48.647Z,50.08
2022-12-08T17:20:22.327Z,55.90
2022-12-08T17:22:49.807Z,69.88
2022-12-08T17:25:16.778Z,82.13
2022-12-08T17:27:43.708Z,74.80
2022-12-08T17:30:15.793Z,70.63
2022-12-08T17:32:43.282Z,62.55
2022-12-08T17:35:10.731Z,64.63
2022-12-08T17:37:38.736Z,71.05
2022-12-08T17:40:06.719Z,75.72
2022-12-08T17:42:33.715Z,73.65
2022-12-08T17:45:00.571Z,69.53
2022-12-08T17:47:27.421Z,72.63
2022-12-08T17:49:56.162Z,65.35
2022-12-08T17:52:23.105Z,59.55
2022-12-08T17:54:50.097Z,63.60
2022-12-08T17:57:16.966Z,55.10
2022-12-08T17:59:43.858Z,60.50
2022-12-08T18:02:12.215Z,60.08
2022-12-08T18:04:39.177Z,55.25
2022-12-08T18:07:21.359Z,64.88
2022-12-08T18:09:55.497Z,73.75
2022-12-08T18:12:26.928Z,76.57
2022-12-08T18:14:53.952Z,68.57
2022-12-08T18:17:21.155Z,67.57
2022-12-08T18:19:48.042Z,69.32
2022-12-08T18:22:16.196Z,76.80
2022-12-08T18:24:44.685Z,73.82
2022-12-08T18:27:11.769Z,78.85
2022-12-08T18:29:38.912Z,79.78
2022-12-08T18:32:06.376Z,81.65
2022-12-08T18:34:34.200Z,75.57
2022-12-08T18:37:01.437Z,72.25
2022-12-08T18:39:31.082Z,69.90
2022-12-08T18:44:35.809Z,85.40
2022-12-08T18:47:02.839Z,81.35
2022-12-08T18:49:29.615Z,78.75
2022-12-08T18:51:56.917Z,78.30
2022-12-08T18:54:37.228Z,75.20
2022-12-08T18:57:10.974Z,72.03
2022-12-08T18:59:38.129Z,69.30
2022-12-08T19:02:05.103Z,65.93
2022-12-08T19:04:37.227Z,63.35
2022-12-08T19:07:06.374Z,65.93
2022-12-08T19:09:33.553Z,64.63
2022-12-08T19:12:00.462Z,63.30
2022-12-08T19:14:30.374Z,65.10
2022-12-08T19:16:58.456Z,60.28
2022-12-08T19:19:26.634Z,66.00
2022-12-08T19:21:54.015Z,67.40
2022-12-08T19:24:21.413Z,65.38
2022-12-08T19:29:24.242Z,65.43
2022-12-08T19:31:51.539Z,66.85
2022-12-08T19:34:19.064Z,63.30
2022-12-08T19:36:46.280Z,63.05
2022-12-08T19:39:40.369Z,61.42
2022-12-08T19:42:37.687Z,62.70
2022-12-08T19:45:12.630Z,76.57
2022-12-08T19:47:40.353Z,88.95
2022-12-08T19:50:27.744Z,96.63
2022-12-08T19:52:56.471Z,99.95
2022-12-08T19:55:24.827Z,103.13
2022-12-08T19:57:53.160Z,101.82
2022-12-08T20:00:21.791Z,103.60
2022-12-08T20:02:48.880Z,98.78
2022-12-08T20:05:16.602Z,95.20
2022-12-08T20:07:44.114Z,87.85
2022-12-08T20:10:23.300Z,98.00
2022-12-08T20:12:50.487Z,97.38
2022-12-08T20:15:17.780Z,90.78
2022-12-08T20:17:44.852Z,94.28
2022-12-08T20:20:13.349Z,86.97
2022-12-08T20:22:42.055Z,93.82
2022-12-08T20:25:13.038Z,86.88
2022-12-08T20:27:40.569Z,87.47
2022-12-08T20:30:13.338Z,89.40
2022-12-08T20:32:43.717Z,86.78
2022-12-08T20:35:10.575Z,86.95
2022-12-08T20:37:38.072Z,94.82
2022-12-08T20:40:06.753Z,102.32
2022-12-08T20:42:33.746Z,102.97
2022-12-08T20:45:00.955Z,107.88
2022-12-08T20:47:28.104Z,100.47
2022-12-08T20:49:55.139Z,98.18
2022-12-08T20:52:22.471Z,98.95
2022-12-08T20:54:49.972Z,97.90
2022-12-08T20:57:16.858Z,96.53
2022-12-08T20:59:43.917Z,95.45
2022-12-08T21:02:11.859Z,103.22
2022-12-08T21:04:39.129Z,91.20
2022-12-08T21:07:06.430Z,96.82
2022-12-08T21:09:33.526Z,92.85
2022-12-08T21:12:00.506Z,93.07
2022-12-08T21:14:27.615Z,89.13
2022-12-08T21:16:55.149Z,85.57
2022-12-08T21:19:22.786Z,75.05
2022-12-08T21:21:51.262Z,72.43
2022-12-08T21:24:19.370Z,66.35
2022-12-08T21:26:46.506Z,66.30
2022-12-08T21:29:13.749Z,61.05
2022-12-08T21:31:41.222Z,55.35
2022-12-08T21:34:08.609Z,52.45
2022-12-08T21:36:35.788Z,49.55
2022-12-08T21:39:03.095Z,45.53
2022-12-08T21:41:49.023Z,46.08
2022-12-08T21:44:20.254Z,43.75
2022-12-08T21:46:47.475Z,44.92
2022-12-08T21:49:14.523Z,44.50
2022-12-08T21:51:42.523Z,45.28
2022-12-08T21:54:18.306Z,43.15
2022-12-08T21:56:46.907Z,45.42
2022-12-08T21:59:13.887Z,44.42
2022-12-08T22:01:43.565Z,46.47
2022-12-08T22:04:12.540Z,46.60
2022-12-08T22:06:39.987Z,46.97
2022-12-08T22:09:07.470Z,49.22
2022-12-08T22:11:34.752Z,49.38
2022-12-08T22:14:01.974Z,51.25
2022-12-08T22:16:28.973Z,50.05
2022-12-08T22:18:56.110Z,56.35
2022-12-08T22:21:23.524Z,62.38
2022-12-08T22:23:50.477Z,59.00
2022-12-08T22:26:17.545Z,54.58
2022-12-08T22:28:44.909Z,50.92
2022-12-08T22:33:32.868Z,52.20
2022-12-08T22:36:08.141Z,47.60
2022-12-08T22:38:37.482Z,48.90
2022-12-08T22:41:06.102Z,44.75
2022-12-08T22:43:34.036Z,46.80
2022-12-08T22:46:01.362Z,45.05
2022-12-08T22:48:28.393Z,44.95
2022-12-08T22:51:00.438Z,45.92
2022-12-08T22:53:27.986Z,43.50
2022-12-08T22:55:55.247Z,43.38
2022-12-08T22:58:23.138Z,43.50
2022-12-08T23:00:50.675Z,46.33
2022-12-08T23:03:18.038Z,47.47
2022-12-08T23:05:45.265Z,43.45
2022-12-08T23:08:15.986Z,43.92
2022-12-08T23:10:44.344Z,41.67
2022-12-08T23:13:12.532Z,42.17
2022-12-08T23:15:40.915Z,41.05
2022-12-08T23:18:08.587Z,44.38
2022-12-08T23:20:36.143Z,50.75
2022-12-08T23:23:03.208Z,45.88
2022-12-08T23:25:30.369Z,47.25
2022-12-08T23:27:57.465Z,48.35
2022-12-08T23:30:26.155Z,46.20
2022-12-08T23:32:56.786Z,47.15
2022-12-08T23:35:23.854Z,43.40
2022-12-08T23:37:50.943Z,41.35
2022-12-08T23:40:17.933Z,42.78
2022-12-08T23:42:44.844Z,40.83
2022-12-08T23:45:12.126Z,41.00
2022-12-08T23:47:39.016Z,41.58
2022-12-08T23:50:07.763Z,40.80
2022-12-08T23:52:35.202Z,38.88
2022-12-08T23:55:02.261Z,39.40
2022-12-08T23:57:29.137Z,39.83
2022-12-08T23:59:56.233Z,39.22
